Terminal Aerodrome Forecast
Issued by NWS Buffalo, NY

Home | Current Version | Previous Version | Text Only | Print | Product List | Glossary On
Versions: 1 2 3 4 5 6 7 8 9 10 11 12 13 14 15 16 17 18 19 20 21 22 23
193
FTUS41 KBUF 280533
TAFART
TAF
KART 280533Z 2806/2906 21009KT 6SM -SHRA BKN015
     FM280700 23013KT P6SM SCT090
     FM281000 23012G18KT P6SM SCT110
     FM282100 23010KT P6SM SCT200
     FM290000 21005KT P6SM SCT100
     FM290200 19004KT P6SM BKN100=

USA.gov is the U.S. government's official web portal to all federal, state and local government web resources and services.